Michipicoten — CFG8060 — position and weather

sailwx.info

Track history (hours):
 
Tides and Currents Weather Stations Pressure Air Temp Water Temp Dewpoint Dewpoint Depression Visibility Wind Speed Wind Dir Waves Ship Positions

Michipicoten

Last reported at 2015-May-03 12:03 UTC. Time now 2015-May-04 08:02 UTC.
Position N 46°31' W 084°23'.

Length 213 m.

Type: Ship. MMSI: 316002501.

Date/timePositionNaut miles runAvg speedWind from/ knotsBaromVisibWave heightAir tempDewpointWater temp
2015-May-03 12:03N 46°31' W 084°23'0 0.0
2015-May-03 09:28N 46°31' W 084°23'2 1.3
2015-May-03 08:12N 46°30' W 084°24'13 4.4
2015-May-03 05:10N 46°20' W 084°11'6 6.8
2015-May-03 04:18N 46°15' W 084°06'7 8.9
2015-May-03 03:32N 46°09' W 084°02'1111.1
2015-May-03 02:33N 46°00' W 083°53'  
2015-Apr-29 14:32N 46°31' W 084°23'0 0.0
2015-Apr-29 08:28N 46°31' W 084°23'5 5.6
2015-Apr-29 07:32N 46°28' W 084°29'7 6.4
2015-Apr-29 06:29N 46°31' W 084°37'6 6.3
2015-Apr-29 05:33N 46°35' W 084°43'7 7.0
2015-Apr-29 04:29N 46°41' W 084°50'8 7.8
2015-Apr-29 03:27N 46°47' W 084°56'  
2015-Apr-26 11:33N 46°27' W 084°32'8 6.9
2015-Apr-26 10:28N 46°31' W 084°23'0 0.0
2015-Apr-26 09:30N 46°31' W 084°23'0 0.0
2015-Apr-26 08:33N 46°31' W 084°23'0 0.0
2015-Apr-26 07:33N 46°31' W 084°23'0 0.0
2015-Apr-26 06:33N 46°31' W 084°23'0 0.0
2015-Apr-26 05:33N 46°31' W 084°23'15 0.5
2015-Apr-25 02:21N 46°33' W 084°44'  
Track history (hours):
 
Tides and Currents Weather Stations Pressure Air Temp Water Temp Dewpoint Dewpoint Depression Visibility Wind Speed Wind Dir Waves Ship Positions

Michipicoten

Last reported at 2015-May-03 12:03 UTC. Time now 2015-May-04 08:02 UTC.
Position N 46°31' W 084°23'.

Length 213 m.

Type: Ship. MMSI: 316002501.

Date/timePositionNaut miles runAvg speedWind from/ knotsBaromVisibWave heightAir tempDewpointWater temp
2015-May-03 12:03N 46°31' W 084°23'0 0.0
2015-May-03 09:28N 46°31' W 084°23'2 1.3
2015-May-03 08:12N 46°30' W 084°24'13 4.4
2015-May-03 05:10N 46°20' W 084°11'6 6.8
2015-May-03 04:18N 46°15' W 084°06'7 8.9
2015-May-03 03:32N 46°09' W 084°02'1111.1
2015-May-03 02:33N 46°00' W 083°53'  
2015-Apr-29 14:32N 46°31' W 084°23'0 0.0
2015-Apr-29 08:28N 46°31' W 084°23'5 5.6
2015-Apr-29 07:32N 46°28' W 084°29'7 6.4
2015-Apr-29 06:29N 46°31' W 084°37'6 6.3
2015-Apr-29 05:33N 46°35' W 084°43'7 7.0
2015-Apr-29 04:29N 46°41' W 084°50'8 7.8
2015-Apr-29 03:27N 46°47' W 084°56'  
2015-Apr-26 11:33N 46°27' W 084°32'8 6.9
2015-Apr-26 10:28N 46°31' W 084°23'0 0.0
2015-Apr-26 09:30N 46°31' W 084°23'0 0.0
2015-Apr-26 08:33N 46°31' W 084°23'0 0.0
2015-Apr-26 07:33N 46°31' W 084°23'0 0.0
2015-Apr-26 06:33N 46°31' W 084°23'0 0.0
2015-Apr-26 05:33N 46°31' W 084°23'15 0.5
2015-Apr-25 02:21N 46°33' W 084°44'  

Dump ship's entire track history